sensor_id;sensor_type;location;lat;lon;timestamp;P1;P2;P0
74333;PMS5003;62753;40.394;-80.022;2023-02-28T00:00:59;24;24;
74333;PMS5003;62753;40.394;-80.022;2023-02-28T00:03:25;29;26;
74333;PMS5003;62753;40.394;-80.022;2023-02-28T00:05:50;33;27;
74333;PMS5003;62753;40.394;-80.022;2023-02-28T00:08:16;27;25;
74333;PMS5003;62753;40.394;-80.022;2023-02-28T00:10:41;27;24;
74333;PMS5003;62753;40.394;-80.022;2023-02-28T00:13:07;31;27;
74333;PMS5003;62753;40.394;-80.022;2023-02-28T00:15:32;28;26;
74333;PMS5003;62753;40.394;-80.022;2023-02-28T00:17:58;29;27;
74333;PMS5003;62753;40.394;-80.022;2023-02-28T00:20:23;35;29;
74333;PMS5003;62753;40.394;-80.022;2023-02-28T00:22:49;34;30;
74333;PMS5003;62753;40.394;-80.022;2023-02-28T00:25:15;35;32;
74333;PMS5003;62753;40.394;-80.022;2023-02-28T00:27:41;36;32;
74333;PMS5003;62753;40.394;-80.022;2023-02-28T00:30:06;29;27;
74333;PMS5003;62753;40.394;-80.022;2023-02-28T00:32:30;30;26;
74333;PMS5003;62753;40.394;-80.022;2023-02-28T00:34:56;21;19;
74333;PMS5003;62753;40.394;-80.022;2023-02-28T00:37:21;22;22;
74333;PMS5003;62753;40.394;-80.022;2023-02-28T00:39:47;25;24;
74333;PMS5003;62753;40.394;-80.022;2023-02-28T00:42:13;27;21;
74333;PMS5003;62753;40.394;-80.022;2023-02-28T00:44:38;19;18;
74333;PMS5003;62753;40.394;-80.022;2023-02-28T00:47:04;25;23;
74333;PMS5003;62753;40.394;-80.022;2023-02-28T00:49:29;19;19;
74333;PMS5003;62753;40.394;-80.022;2023-02-28T00:51:54;20;18;
74333;PMS5003;62753;40.394;-80.022;2023-02-28T00:54:20;15;15;
74333;PMS5003;62753;40.394;-80.022;2023-02-28T00:56:45;20;18;
74333;PMS5003;62753;40.394;-80.022;2023-02-28T00:59:11;18;16;
74333;PMS5003;62753;40.394;-80.022;2023-02-28T01:01:36;13;12;
74333;PMS5003;62753;40.394;-80.022;2023-02-28T01:04:02;16;14;
74333;PMS5003;62753;40.394;-80.022;2023-02-28T01:06:27;17;14;
74333;PMS5003;62753;40.394;-80.022;2023-02-28T01:08:52;13;13;
74333;PMS5003;62753;40.394;-80.022;2023-02-28T01:11:17;12;12;
74333;PMS5003;62753;40.394;-80.022;2023-02-28T01:13:43;13;12;
74333;PMS5003;62753;40.394;-80.022;2023-02-28T01:16:07;12;11;
74333;PMS5003;62753;40.394;-80.022;2023-02-28T01:18:33;10;10;
74333;PMS5003;62753;40.394;-80.022;2023-02-28T01:20:58;11;10;
74333;PMS5003;62753;40.394;-80.022;2023-02-28T01:23:24;9;9;
74333;PMS5003;62753;40.394;-80.022;2023-02-28T01:25:49;12;10;
74333;PMS5003;62753;40.394;-80.022;2023-02-28T01:28:15;11;11;
74333;PMS5003;62753;40.394;-80.022;2023-02-28T01:30:40;14;12;
74333;PMS5003;62753;40.394;-80.022;2023-02-28T01:33:05;11;10;
74333;PMS5003;62753;40.394;-80.022;2023-02-28T01:35:32;10;10;
74333;PMS5003;62753;40.394;-80.022;2023-02-28T01:37:55;11;10;
74333;PMS5003;62753;40.394;-80.022;2023-02-28T01:40:21;12;11;
74333;PMS5003;62753;40.394;-80.022;2023-02-28T01:42:46;12;11;
74333;PMS5003;62753;40.394;-80.022;2023-02-28T01:45:18;13;11;
74333;PMS5003;62753;40.394;-80.022;2023-02-28T01:47:38;13;10;
74333;PMS5003;62753;40.394;-80.022;2023-02-28T01:50:04;12;9;
74333;PMS5003;62753;40.394;-80.022;2023-02-28T01:52:28;7;7;
74333;PMS5003;62753;40.394;-80.022;2023-02-28T01:54:54;8;6;
74333;PMS5003;62753;40.394;-80.022;2023-02-28T01:57:19;6;6;
74333;PMS5003;62753;40.394;-80.022;2023-02-28T01:59:43;8;6;
74333;PMS5003;62753;40.394;-80.022;2023-02-28T02:02:08;5;5;
74333;PMS5003;62753;40.394;-80.022;2023-02-28T02:04:35;5;4;
74333;PMS5003;62753;40.394;-80.022;2023-02-28T02:06:59;6;6;
74333;PMS5003;62753;40.394;-80.022;2023-02-28T02:09:24;9;7;
74333;PMS5003;62753;40.394;-80.022;2023-02-28T02:11:49;5;5;
74333;PMS5003;62753;40.394;-80.022;2023-02-28T02:14:20;6;4;
74333;PMS5003;62753;40.394;-80.022;2023-02-28T02:16:45;4;4;
74333;PMS5003;62753;40.394;-80.022;2023-02-28T02:19:11;4;4;
74333;PMS5003;62753;40.394;-80.022;2023-02-28T02:21:38;3;3;
74333;PMS5003;62753;40.394;-80.022;2023-02-28T02:24:03;5;5;
74333;PMS5003;62753;40.394;-80.022;2023-02-28T02:26:27;3;3;
74333;PMS5003;62753;40.394;-80.022;2023-02-28T02:31:18;3;2;
74333;PMS5003;62753;40.394;-80.022;2023-02-28T02:33:45;4;3;
74333;PMS5003;62753;40.394;-80.022;2023-02-28T02:36:03;4;3;
74333;PMS5003;62753;40.394;-80.022;2023-02-28T02:38:32;3;3;
74333;PMS5003;62753;40.394;-80.022;2023-02-28T02:40:55;6;5;
74333;PMS5003;62753;40.394;-80.022;2023-02-28T02:43:20;4;4;
74333;PMS5003;62753;40.394;-80.022;2023-02-28T02:45:45;4;2;
74333;PMS5003;62753;40.394;-80.022;2023-02-28T02:48:11;4;3;
74333;PMS5003;62753;40.394;-80.022;2023-02-28T02:50:36;3;2;
74333;PMS5003;62753;40.394;-80.022;2023-02-28T02:53:01;5;3;
74333;PMS5003;62753;40.394;-80.022;2023-02-28T02:55:26;2;2;
74333;PMS5003;62753;40.394;-80.022;2023-02-28T02:57:52;2;1;
74333;PMS5003;62753;40.394;-80.022;2023-02-28T03:00:17;6;4;
74333;PMS5003;62753;40.394;-80.022;2023-02-28T03:02:42;2;2;
74333;PMS5003;62753;40.394;-80.022;2023-02-28T03:05:09;3;2;
74333;PMS5003;62753;40.394;-80.022;2023-02-28T03:07:32;4;3;
74333;PMS5003;62753;40.394;-80.022;2023-02-28T03:09:58;4;4;
74333;PMS5003;62753;40.394;-80.022;2023-02-28T03:12:23;4;2;
74333;PMS5003;62753;40.394;-80.022;2023-02-28T03:14:51;1;1;
74333;PMS5003;62753;40.394;-80.022;2023-02-28T03:17:18;5;3;
74333;PMS5003;62753;40.394;-80.022;2023-02-28T03:19:45;2;2;
74333;PMS5003;62753;40.394;-80.022;2023-02-28T03:22:09;4;2;
74333;PMS5003;62753;40.394;-80.022;2023-02-28T03:24:31;2;1;
74333;PMS5003;62753;40.394;-80.022;2023-02-28T03:26:57;2;1;
74333;PMS5003;62753;40.394;-80.022;2023-02-28T03:29:22;3;3;
74333;PMS5003;62753;40.394;-80.022;2023-02-28T03:31:48;3;2;
74333;PMS5003;62753;40.394;-80.022;2023-02-28T03:34:14;4;2;
74333;PMS5003;62753;40.394;-80.022;2023-02-28T03:36:38;4;3;
74333;PMS5003;62753;40.394;-80.022;2023-02-28T03:39:03;3;2;
74333;PMS5003;62753;40.394;-80.022;2023-02-28T03:41:29;5;2;
74333;PMS5003;62753;40.394;-80.022;2023-02-28T03:43:54;3;2;
74333;PMS5003;62753;40.394;-80.022;2023-02-28T03:46:18;3;3;
74333;PMS5003;62753;40.394;-80.022;2023-02-28T03:48:44;2;1;
74333;PMS5003;62753;40.394;-80.022;2023-02-28T03:51:09;5;3;
74333;PMS5003;62753;40.394;-80.022;2023-02-28T03:53:34;4;3;
74333;PMS5003;62753;40.394;-80.022;2023-02-28T03:56:00;5;3;
74333;PMS5003;62753;40.394;-80.022;2023-02-28T03:58:26;8;3;
74333;PMS5003;62753;40.394;-80.022;2023-02-28T04:00:52;3;3;
74333;PMS5003;62753;40.394;-80.022;2023-02-28T04:03:15;5;3;
74333;PMS5003;62753;40.394;-80.022;2023-02-28T04:05:47;5;4;
74333;PMS5003;62753;40.394;-80.022;2023-02-28T04:08:07;6;4;
74333;PMS5003;62753;40.394;-80.022;2023-02-28T04:10:31;3;2;
74333;PMS5003;62753;40.394;-80.022;2023-02-28T04:12:56;3;2;
74333;PMS5003;62753;40.394;-80.022;2023-02-28T04:15:21;3;3;
74333;PMS5003;62753;40.394;-80.022;2023-02-28T04:17:47;4;3;
74333;PMS5003;62753;40.394;-80.022;2023-02-28T04:20:12;4;2;
74333;PMS5003;62753;40.394;-80.022;2023-02-28T04:22:37;2;2;
74333;PMS5003;62753;40.394;-80.022;2023-02-28T04:25:03;3;3;
74333;PMS5003;62753;40.394;-80.022;2023-02-28T04:27:28;4;3;
74333;PMS5003;62753;40.394;-80.022;2023-02-28T04:29:53;3;2;
74333;PMS5003;62753;40.394;-80.022;2023-02-28T04:32:19;2;1;
74333;PMS5003;62753;40.394;-80.022;2023-02-28T04:34:44;4;3;
74333;PMS5003;62753;40.394;-80.022;2023-02-28T04:37:09;4;3;
74333;PMS5003;62753;40.394;-80.022;2023-02-28T04:39:35;3;2;
74333;PMS5003;62753;40.394;-80.022;2023-02-28T04:42:00;4;3;
74333;PMS5003;62753;40.394;-80.022;2023-02-28T04:44:25;2;2;
74333;PMS5003;62753;40.394;-80.022;2023-02-28T04:46:50;3;2;
74333;PMS5003;62753;40.394;-80.022;2023-02-28T04:49:16;3;2;
74333;PMS5003;62753;40.394;-80.022;2023-02-28T04:51:41;3;3;
74333;PMS5003;62753;40.394;-80.022;2023-02-28T04:54:07;5;2;
74333;PMS5003;62753;40.394;-80.022;2023-02-28T04:56:32;3;2;
74333;PMS5003;62753;40.394;-80.022;2023-02-28T04:58:57;3;3;
74333;PMS5003;62753;40.394;-80.022;2023-02-28T05:01:24;2;1;
74333;PMS5003;62753;40.394;-80.022;2023-02-28T05:03:48;4;3;
74333;PMS5003;62753;40.394;-80.022;2023-02-28T05:06:14;2;2;
74333;PMS5003;62753;40.394;-80.022;2023-02-28T05:08:39;3;1;
74333;PMS5003;62753;40.394;-80.022;2023-02-28T05:11:05;3;1;
74333;PMS5003;62753;40.394;-80.022;2023-02-28T05:13:30;3;2;
74333;PMS5003;62753;40.394;-80.022;2023-02-28T05:15:55;3;2;
74333;PMS5003;62753;40.394;-80.022;2023-02-28T05:18:21;1;1;
74333;PMS5003;62753;40.394;-80.022;2023-02-28T05:20:46;2;2;
74333;PMS5003;62753;40.394;-80.022;2023-02-28T05:23:12;4;3;
74333;PMS5003;62753;40.394;-80.022;2023-02-28T05:25:37;3;3;
74333;PMS5003;62753;40.394;-80.022;2023-02-28T05:28:02;2;2;
74333;PMS5003;62753;40.394;-80.022;2023-02-28T05:30:27;3;1;
74333;PMS5003;62753;40.394;-80.022;2023-02-28T05:32:53;5;3;
74333;PMS5003;62753;40.394;-80.022;2023-02-28T05:35:18;3;3;
74333;PMS5003;62753;40.394;-80.022;2023-02-28T05:37:44;3;2;
74333;PMS5003;62753;40.394;-80.022;2023-02-28T05:40:10;3;2;
74333;PMS5003;62753;40.394;-80.022;2023-02-28T05:42:34;3;2;
74333;PMS5003;62753;40.394;-80.022;2023-02-28T05:44:59;3;2;
74333;PMS5003;62753;40.394;-80.022;2023-02-28T05:47:25;1;1;
74333;PMS5003;62753;40.394;-80.022;2023-02-28T05:49:50;7;6;
74333;PMS5003;62753;40.394;-80.022;2023-02-28T05:52:15;4;3;
74333;PMS5003;62753;40.394;-80.022;2023-02-28T05:54:40;5;4;
74333;PMS5003;62753;40.394;-80.022;2023-02-28T05:57:05;6;5;
74333;PMS5003;62753;40.394;-80.022;2023-02-28T05:59:30;5;3;
74333;PMS5003;62753;40.394;-80.022;2023-02-28T06:01:56;4;2;
74333;PMS5003;62753;40.394;-80.022;2023-02-28T06:04:21;3;3;
74333;PMS5003;62753;40.394;-80.022;2023-02-28T06:06:47;2;2;
74333;PMS5003;62753;40.394;-80.022;2023-02-28T06:09:12;4;3;
74333;PMS5003;62753;40.394;-80.022;2023-02-28T06:11:37;2;2;
74333;PMS5003;62753;40.394;-80.022;2023-02-28T06:14:03;5;4;
74333;PMS5003;62753;40.394;-80.022;2023-02-28T06:16:28;7;4;
74333;PMS5003;62753;40.394;-80.022;2023-02-28T06:18:53;5;3;
74333;PMS5003;62753;40.394;-80.022;2023-02-28T06:21:19;3;3;
74333;PMS5003;62753;40.394;-80.022;2023-02-28T06:23:44;6;3;
74333;PMS5003;62753;40.394;-80.022;2023-02-28T06:26:09;6;4;
74333;PMS5003;62753;40.394;-80.022;2023-02-28T06:28:35;3;2;
74333;PMS5003;62753;40.394;-80.022;2023-02-28T06:31:05;4;3;
74333;PMS5003;62753;40.394;-80.022;2023-02-28T06:33:25;3;1;
74333;PMS5003;62753;40.394;-80.022;2023-02-28T06:35:51;3;2;
74333;PMS5003;62753;40.394;-80.022;2023-02-28T06:38:16;5;4;
74333;PMS5003;62753;40.394;-80.022;2023-02-28T06:40:41;3;3;
74333;PMS5003;62753;40.394;-80.022;2023-02-28T06:43:07;3;2;
74333;PMS5003;62753;40.394;-80.022;2023-02-28T06:45:31;2;1;
74333;PMS5003;62753;40.394;-80.022;2023-02-28T06:47:57;3;2;
74333;PMS5003;62753;40.394;-80.022;2023-02-28T06:50:22;1;1;
74333;PMS5003;62753;40.394;-80.022;2023-02-28T06:52:48;7;5;
74333;PMS5003;62753;40.394;-80.022;2023-02-28T06:55:13;3;2;
74333;PMS5003;62753;40.394;-80.022;2023-02-28T06:57:39;6;3;
74333;PMS5003;62753;40.394;-80.022;2023-02-28T07:00:05;3;2;
74333;PMS5003;62753;40.394;-80.022;2023-02-28T07:02:30;2;2;
74333;PMS5003;62753;40.394;-80.022;2023-02-28T07:04:55;4;3;
74333;PMS5003;62753;40.394;-80.022;2023-02-28T07:07:20;4;2;
74333;PMS5003;62753;40.394;-80.022;2023-02-28T07:09:45;3;3;
74333;PMS5003;62753;40.394;-80.022;2023-02-28T07:12:10;3;3;
74333;PMS5003;62753;40.394;-80.022;2023-02-28T07:14:36;8;4;
74333;PMS5003;62753;40.394;-80.022;2023-02-28T07:17:01;5;4;
74333;PMS5003;62753;40.394;-80.022;2023-02-28T07:19:26;8;5;
74333;PMS5003;62753;40.394;-80.022;2023-02-28T07:21:51;3;3;
74333;PMS5003;62753;40.394;-80.022;2023-02-28T07:24:17;6;3;
74333;PMS5003;62753;40.394;-80.022;2023-02-28T07:26:42;6;5;
74333;PMS5003;62753;40.394;-80.022;2023-02-28T07:29:07;6;4;
74333;PMS5003;62753;40.394;-80.022;2023-02-28T07:31:33;4;4;
74333;PMS5003;62753;40.394;-80.022;2023-02-28T07:33:58;5;5;
74333;PMS5003;62753;40.394;-80.022;2023-02-28T07:36:23;4;3;
74333;PMS5003;62753;40.394;-80.022;2023-02-28T07:38:48;3;3;
74333;PMS5003;62753;40.394;-80.022;2023-02-28T07:41:14;6;4;
74333;PMS5003;62753;40.394;-80.022;2023-02-28T07:43:39;4;4;
74333;PMS5003;62753;40.394;-80.022;2023-02-28T07:46:04;4;3;
74333;PMS5003;62753;40.394;-80.022;2023-02-28T07:48:29;6;4;
74333;PMS5003;62753;40.394;-80.022;2023-02-28T07:50:55;5;5;
74333;PMS5003;62753;40.394;-80.022;2023-02-28T07:53:20;4;4;
74333;PMS5003;62753;40.394;-80.022;2023-02-28T07:55:45;3;3;
74333;PMS5003;62753;40.394;-80.022;2023-02-28T07:58:11;3;3;
74333;PMS5003;62753;40.394;-80.022;2023-02-28T08:00:36;3;2;
74333;PMS5003;62753;40.394;-80.022;2023-02-28T08:03:01;3;1;
74333;PMS5003;62753;40.394;-80.022;2023-02-28T08:05:27;1;1;
74333;PMS5003;62753;40.394;-80.022;2023-02-28T08:07:52;0;0;
74333;PMS5003;62753;40.394;-80.022;2023-02-28T08:10:18;1;0;
74333;PMS5003;62753;40.394;-80.022;2023-02-28T08:12:43;2;1;
74333;PMS5003;62753;40.394;-80.022;2023-02-28T08:15:08;0;0;
74333;PMS5003;62753;40.394;-80.022;2023-02-28T08:17:33;1;1;
74333;PMS5003;62753;40.394;-80.022;2023-02-28T08:19:59;1;1;
74333;PMS5003;62753;40.394;-80.022;2023-02-28T08:22:24;0;0;
74333;PMS5003;62753;40.394;-80.022;2023-02-28T08:24:49;0;0;
74333;PMS5003;62753;40.394;-80.022;2023-02-28T08:27:15;1;1;
74333;PMS5003;62753;40.394;-80.022;2023-02-28T08:29:40;1;1;
74333;PMS5003;62753;40.394;-80.022;2023-02-28T08:32:05;0;0;
74333;PMS5003;62753;40.394;-80.022;2023-02-28T08:34:30;0;0;
74333;PMS5003;62753;40.394;-80.022;2023-02-28T08:36:56;1;0;
74333;PMS5003;62753;40.394;-80.022;2023-02-28T08:39:21;2;0;
74333;PMS5003;62753;40.394;-80.022;2023-02-28T08:41:46;0;0;
74333;PMS5003;62753;40.394;-80.022;2023-02-28T08:44:12;0;0;
74333;PMS5003;62753;40.394;-80.022;2023-02-28T08:46:37;0;0;
74333;PMS5003;62753;40.394;-80.022;2023-02-28T08:49:03;2;1;
74333;PMS5003;62753;40.394;-80.022;2023-02-28T08:51:28;1;0;
74333;PMS5003;62753;40.394;-80.022;2023-02-28T08:53:53;1;1;
74333;PMS5003;62753;40.394;-80.022;2023-02-28T08:56:19;0;0;
74333;PMS5003;62753;40.394;-80.022;2023-02-28T08:58:44;2;2;
74333;PMS5003;62753;40.394;-80.022;2023-02-28T09:01:12;2;1;
74333;PMS5003;62753;40.394;-80.022;2023-02-28T09:03:35;0;0;
74333;PMS5003;62753;40.394;-80.022;2023-02-28T09:06:00;0;0;
74333;PMS5003;62753;40.394;-80.022;2023-02-28T09:08:26;0;0;
74333;PMS5003;62753;40.394;-80.022;2023-02-28T09:10:51;0;0;
74333;PMS5003;62753;40.394;-80.022;2023-02-28T09:13:16;0;0;
74333;PMS5003;62753;40.394;-80.022;2023-02-28T09:15:41;2;1;
74333;PMS5003;62753;40.394;-80.022;2023-02-28T09:18:07;0;0;
74333;PMS5003;62753;40.394;-80.022;2023-02-28T09:20:32;0;0;
74333;PMS5003;62753;40.394;-80.022;2023-02-28T09:22:58;0;0;
74333;PMS5003;62753;40.394;-80.022;2023-02-28T09:25:23;0;0;
74333;PMS5003;62753;40.394;-80.022;2023-02-28T09:27:48;0;0;
74333;PMS5003;62753;40.394;-80.022;2023-02-28T09:30:14;1;1;
74333;PMS5003;62753;40.394;-80.022;2023-02-28T09:32:39;0;0;
74333;PMS5003;62753;40.394;-80.022;2023-02-28T09:35:05;0;0;
74333;PMS5003;62753;40.394;-80.022;2023-02-28T09:37:30;0;0;
74333;PMS5003;62753;40.394;-80.022;2023-02-28T09:39:55;0;0;
74333;PMS5003;62753;40.394;-80.022;2023-02-28T09:42:21;0;0;
74333;PMS5003;62753;40.394;-80.022;2023-02-28T09:44:46;0;0;
74333;PMS5003;62753;40.394;-80.022;2023-02-28T09:47:12;0;0;
74333;PMS5003;62753;40.394;-80.022;2023-02-28T09:49:37;0;0;
74333;PMS5003;62753;40.394;-80.022;2023-02-28T09:52:03;0;0;
74333;PMS5003;62753;40.394;-80.022;2023-02-28T09:54:28;0;0;
74333;PMS5003;62753;40.394;-80.022;2023-02-28T09:56:53;0;0;
74333;PMS5003;62753;40.394;-80.022;2023-02-28T09:59:23;0;0;
74333;PMS5003;62753;40.394;-80.022;2023-02-28T10:01:45;0;0;
74333;PMS5003;62753;40.394;-80.022;2023-02-28T10:04:10;0;0;
74333;PMS5003;62753;40.394;-80.022;2023-02-28T10:06:35;0;0;
74333;PMS5003;62753;40.394;-80.022;2023-02-28T10:09:00;0;0;
74333;PMS5003;62753;40.394;-80.022;2023-02-28T10:11:25;0;0;
74333;PMS5003;62753;40.394;-80.022;2023-02-28T10:13:51;0;0;
74333;PMS5003;62753;40.394;-80.022;2023-02-28T10:16:17;0;0;
74333;PMS5003;62753;40.394;-80.022;2023-02-28T10:18:42;0;0;
74333;PMS5003;62753;40.394;-80.022;2023-02-28T10:21:08;1;1;
74333;PMS5003;62753;40.394;-80.022;2023-02-28T10:23:33;0;0;
74333;PMS5003;62753;40.394;-80.022;2023-02-28T10:25:58;0;0;
74333;PMS5003;62753;40.394;-80.022;2023-02-28T10:28:23;0;0;
74333;PMS5003;62753;40.394;-80.022;2023-02-28T10:30:49;0;0;
74333;PMS5003;62753;40.394;-80.022;2023-02-28T10:33:16;2;2;
74333;PMS5003;62753;40.394;-80.022;2023-02-28T10:35:39;0;0;
74333;PMS5003;62753;40.394;-80.022;2023-02-28T10:38:08;0;0;
74333;PMS5003;62753;40.394;-80.022;2023-02-28T10:40:31;1;1;
74333;PMS5003;62753;40.394;-80.022;2023-02-28T10:42:55;3;3;
74333;PMS5003;62753;40.394;-80.022;2023-02-28T10:45:20;2;2;
74333;PMS5003;62753;40.394;-80.022;2023-02-28T10:47:51;2;1;
74333;PMS5003;62753;40.394;-80.022;2023-02-28T10:52:37;2;2;
74333;PMS5003;62753;40.394;-80.022;2023-02-28T10:57:28;4;4;
74333;PMS5003;62753;40.394;-80.022;2023-02-28T10:59:53;4;4;
74333;PMS5003;62753;40.394;-80.022;2023-02-28T11:02:29;4;3;
74333;PMS5003;62753;40.394;-80.022;2023-02-28T11:04:44;4;4;
74333;PMS5003;62753;40.394;-80.022;2023-02-28T11:09:35;5;5;
74333;PMS5003;62753;40.394;-80.022;2023-02-28T11:12:00;2;2;
74333;PMS5003;62753;40.394;-80.022;2023-02-28T11:14:26;4;4;
74333;PMS5003;62753;40.394;-80.022;2023-02-28T11:16:51;4;4;
74333;PMS5003;62753;40.394;-80.022;2023-02-28T11:19:18;4;4;
74333;PMS5003;62753;40.394;-80.022;2023-02-28T11:21:45;3;3;
74333;PMS5003;62753;40.394;-80.022;2023-02-28T11:24:13;4;4;
74333;PMS5003;62753;40.394;-80.022;2023-02-28T11:26:38;4;4;
74333;PMS5003;62753;40.394;-80.022;2023-02-28T11:29:03;3;3;
74333;PMS5003;62753;40.394;-80.022;2023-02-28T11:31:23;6;6;
74333;PMS5003;62753;40.394;-80.022;2023-02-28T11:33:50;4;4;
74333;PMS5003;62753;40.394;-80.022;2023-02-28T11:36:16;5;5;
74333;PMS5003;62753;40.394;-80.022;2023-02-28T11:38:40;4;4;
74333;PMS5003;62753;40.394;-80.022;2023-02-28T11:41:09;5;5;
74333;PMS5003;62753;40.394;-80.022;2023-02-28T11:43:35;4;4;
74333;PMS5003;62753;40.394;-80.022;2023-02-28T11:46:00;3;3;
74333;PMS5003;62753;40.394;-80.022;2023-02-28T11:48:22;3;3;
74333;PMS5003;62753;40.394;-80.022;2023-02-28T11:50:52;4;3;
74333;PMS5003;62753;40.394;-80.022;2023-02-28T11:53:17;4;4;
74333;PMS5003;62753;40.394;-80.022;2023-02-28T11:55:39;3;2;
74333;PMS5003;62753;40.394;-80.022;2023-02-28T12:00:33;4;4;
74333;PMS5003;62753;40.394;-80.022;2023-02-28T12:02:58;3;3;
74333;PMS5003;62753;40.394;-80.022;2023-02-28T12:05:23;3;3;
74333;PMS5003;62753;40.394;-80.022;2023-02-28T12:07:49;4;4;
74333;PMS5003;62753;40.394;-80.022;2023-02-28T12:10:14;2;2;
74333;PMS5003;62753;40.394;-80.022;2023-02-28T12:12:39;3;3;
74333;PMS5003;62753;40.394;-80.022;2023-02-28T12:17:30;3;3;
74333;PMS5003;62753;40.394;-80.022;2023-02-28T12:19:54;3;3;
74333;PMS5003;62753;40.394;-80.022;2023-02-28T12:22:22;4;3;
74333;PMS5003;62753;40.394;-80.022;2023-02-28T12:24:49;3;3;
74333;PMS5003;62753;40.394;-80.022;2023-02-28T12:27:10;4;4;
74333;PMS5003;62753;40.394;-80.022;2023-02-28T12:29:37;4;4;
74333;PMS5003;62753;40.394;-80.022;2023-02-28T12:32:01;4;4;
74333;PMS5003;62753;40.394;-80.022;2023-02-28T12:34:27;3;3;
74333;PMS5003;62753;40.394;-80.022;2023-02-28T12:36:51;5;4;
74333;PMS5003;62753;40.394;-80.022;2023-02-28T12:39:17;4;4;
74333;PMS5003;62753;40.394;-80.022;2023-02-28T12:41:44;6;6;
74333;PMS5003;62753;40.394;-80.022;2023-02-28T12:44:08;4;4;
74333;PMS5003;62753;40.394;-80.022;2023-02-28T12:46:33;5;5;
74333;PMS5003;62753;40.394;-80.022;2023-02-28T12:48:58;5;5;
74333;PMS5003;62753;40.394;-80.022;2023-02-28T12:51:23;5;4;
74333;PMS5003;62753;40.394;-80.022;2023-02-28T12:53:51;4;4;
74333;PMS5003;62753;40.394;-80.022;2023-02-28T12:56:15;3;3;
74333;PMS5003;62753;40.394;-80.022;2023-02-28T12:58:40;2;2;
74333;PMS5003;62753;40.394;-80.022;2023-02-28T13:06:03;6;5;
74333;PMS5003;62753;40.394;-80.022;2023-02-28T13:08:28;6;5;
74333;PMS5003;62753;40.394;-80.022;2023-02-28T13:10:47;6;5;
74333;PMS5003;62753;40.394;-80.022;2023-02-28T13:13:16;6;5;
74333;PMS5003;62753;40.394;-80.022;2023-02-28T13:15:37;5;5;
74333;PMS5003;62753;40.394;-80.022;2023-02-28T13:18:03;7;6;
74333;PMS5003;62753;40.394;-80.022;2023-02-28T13:20:31;5;5;
74333;PMS5003;62753;40.394;-80.022;2023-02-28T13:22:54;7;5;
74333;PMS5003;62753;40.394;-80.022;2023-02-28T13:27:45;10;9;
74333;PMS5003;62753;40.394;-80.022;2023-02-28T13:32:35;7;7;
74333;PMS5003;62753;40.394;-80.022;2023-02-28T13:37:33;8;7;
74333;PMS5003;62753;40.394;-80.022;2023-02-28T13:39:52;8;8;
74333;PMS5003;62753;40.394;-80.022;2023-02-28T13:42:23;10;9;
74333;PMS5003;62753;40.394;-80.022;2023-02-28T13:49:33;9;9;
74333;PMS5003;62753;40.394;-80.022;2023-02-28T13:52:02;10;9;
74333;PMS5003;62753;40.394;-80.022;2023-02-28T13:54:28;10;9;
74333;PMS5003;62753;40.394;-80.022;2023-02-28T13:56:51;10;9;
74333;PMS5003;62753;40.394;-80.022;2023-02-28T13:59:18;11;11;
74333;PMS5003;62753;40.394;-80.022;2023-02-28T14:01:43;9;9;
74333;PMS5003;62753;40.394;-80.022;2023-02-28T14:04:11;13;9;
74333;PMS5003;62753;40.394;-80.022;2023-02-28T14:06:30;10;9;
74333;PMS5003;62753;40.394;-80.022;2023-02-28T14:08:57;10;10;
74333;PMS5003;62753;40.394;-80.022;2023-02-28T14:11:24;10;10;
74333;PMS5003;62753;40.394;-80.022;2023-02-28T14:13:47;8;8;
74333;PMS5003;62753;40.394;-80.022;2023-02-28T14:16:13;9;9;
74333;PMS5003;62753;40.394;-80.022;2023-02-28T14:18:39;11;10;
74333;PMS5003;62753;40.394;-80.022;2023-02-28T14:21:09;9;9;
74333;PMS5003;62753;40.394;-80.022;2023-02-28T14:25:57;9;9;
74333;PMS5003;62753;40.394;-80.022;2023-02-28T14:28:21;7;7;
74333;PMS5003;62753;40.394;-80.022;2023-02-28T14:30:52;7;7;
74333;PMS5003;62753;40.394;-80.022;2023-02-28T14:33:16;8;8;
74333;PMS5003;62753;40.394;-80.022;2023-02-28T14:35:40;9;9;
74333;PMS5003;62753;40.394;-80.022;2023-02-28T14:38:03;9;9;
74333;PMS5003;62753;40.394;-80.022;2023-02-28T14:40:28;10;10;
74333;PMS5003;62753;40.394;-80.022;2023-02-28T14:42:55;15;11;
74333;PMS5003;62753;40.394;-80.022;2023-02-28T14:45:18;13;12;
74333;PMS5003;62753;40.394;-80.022;2023-02-28T14:47:43;13;13;
74333;PMS5003;62753;40.394;-80.022;2023-02-28T14:52:34;13;13;
74333;PMS5003;62753;40.394;-80.022;2023-02-28T14:55:00;13;13;
74333;PMS5003;62753;40.394;-80.022;2023-02-28T14:57:25;12;12;
74333;PMS5003;62753;40.394;-80.022;2023-02-28T14:59:57;15;14;
74333;PMS5003;62753;40.394;-80.022;2023-02-28T15:02:17;13;13;
74333;PMS5003;62753;40.394;-80.022;2023-02-28T15:04:41;14;13;
74333;PMS5003;62753;40.394;-80.022;2023-02-28T15:07:07;15;13;
74333;PMS5003;62753;40.394;-80.022;2023-02-28T15:09:32;14;13;
74333;PMS5003;62753;40.394;-80.022;2023-02-28T15:11:58;13;13;
74333;PMS5003;62753;40.394;-80.022;2023-02-28T15:14:23;17;17;
74333;PMS5003;62753;40.394;-80.022;2023-02-28T15:16:50;11;11;
74333;PMS5003;62753;40.394;-80.022;2023-02-28T15:19:14;18;16;
74333;PMS5003;62753;40.394;-80.022;2023-02-28T15:21:41;14;13;
74333;PMS5003;62753;40.394;-80.022;2023-02-28T15:24:05;13;13;
74333;PMS5003;62753;40.394;-80.022;2023-02-28T15:26:31;18;17;
74333;PMS5003;62753;40.394;-80.022;2023-02-28T15:28:58;15;13;
74333;PMS5003;62753;40.394;-80.022;2023-02-28T15:31:23;16;16;
74333;PMS5003;62753;40.394;-80.022;2023-02-28T15:36:13;13;13;
74333;PMS5003;62753;40.394;-80.022;2023-02-28T15:38:38;13;13;
74333;PMS5003;62753;40.394;-80.022;2023-02-28T15:41:03;11;11;
74333;PMS5003;62753;40.394;-80.022;2023-02-28T15:43:29;9;8;
74333;PMS5003;62753;40.394;-80.022;2023-02-28T15:45:55;11;10;
74333;PMS5003;62753;40.394;-80.022;2023-02-28T15:48:20;8;8;
74333;PMS5003;62753;40.394;-80.022;2023-02-28T15:50:46;8;8;
74333;PMS5003;62753;40.394;-80.022;2023-02-28T15:53:13;8;7;
74333;PMS5003;62753;40.394;-80.022;2023-02-28T15:55:36;7;6;
74333;PMS5003;62753;40.394;-80.022;2023-02-28T15:58:01;7;7;
74333;PMS5003;62753;40.394;-80.022;2023-02-28T16:00:30;6;5;
74333;PMS5003;62753;40.394;-80.022;2023-02-28T16:02:52;5;5;
74333;PMS5003;62753;40.394;-80.022;2023-02-28T16:05:20;4;4;
74333;PMS5003;62753;40.394;-80.022;2023-02-28T16:07:43;5;5;
74333;PMS5003;62753;40.394;-80.022;2023-02-28T16:10:10;4;4;
74333;PMS5003;62753;40.394;-80.022;2023-02-28T16:12:35;4;4;
74333;PMS5003;62753;40.394;-80.022;2023-02-28T16:15:00;3;3;
74333;PMS5003;62753;40.394;-80.022;2023-02-28T16:17:26;3;3;
74333;PMS5003;62753;40.394;-80.022;2023-02-28T16:19:50;3;3;
74333;PMS5003;62753;40.394;-80.022;2023-02-28T16:22:16;3;3;
74333;PMS5003;62753;40.394;-80.022;2023-02-28T16:24:41;4;3;
74333;PMS5003;62753;40.394;-80.022;2023-02-28T16:27:07;2;2;
74333;PMS5003;62753;40.394;-80.022;2023-02-28T16:29:33;2;2;
74333;PMS5003;62753;40.394;-80.022;2023-02-28T16:31:58;3;3;
74333;PMS5003;62753;40.394;-80.022;2023-02-28T16:34:23;3;3;
74333;PMS5003;62753;40.394;-80.022;2023-02-28T16:36:49;2;2;